Time;durP1;ratioP1;P1;durP2;ratioP2;P2;SDS_P1;SDS_P2;PMS_P1;PMS_P2;Temp;Humidity;BMP_temperature;BMP_pressure;BME280_temperature;BME280_humidity;BME280_pressure;Samples;Min_cycle;Max_cycle;Signal;HPM_P1;HPM_P2
2023/04/11 00:01:01;;;;;;;;;;;7.10;99.90;;;;;;5144850;27;19931;-38
2023/04/11 00:03:27;;;;;;;;;;;7.10;99.90;;;;;;5146275;27;19919;-38
2023/04/11 00:05:53;;;;;;;;;;;7.10;99.90;;;;;;5145304;27;19918;-39
2023/04/11 00:08:18;;;;;;;;;;;7.20;99.90;;;;;;5144064;27;19915;-39
2023/04/11 00:10:44;;;;;;;;;;;7.20;99.90;;;;;;5131649;27;20413;-38
2023/04/11 00:13:09;;;;;;;;;;;7.10;99.90;;;;;;5137222;27;19915;-38
2023/04/11 00:15:35;;;;;;;;;;;7.20;99.90;;;;;;5138207;27;19915;-39
2023/04/11 00:18:00;;;;;;;;;;;7.10;99.90;;;;;;5119462;27;19923;-39
2023/04/11 00:20:26;;;;;;;;;;;7.10;99.90;;;;;;5137218;27;19908;-40
2023/04/11 00:22:54;;;;;;;;;;;7.10;99.90;;;;;;5137793;27;19907;-40
2023/04/11 00:25:19;;;;;;;;;;;7.10;99.90;;;;;;5138177;27;19998;-38
2023/04/11 00:27:45;;;;;;;;;;;7.10;99.90;;;;;;5136865;27;19943;-41
2023/04/11 00:30:10;;;;;;;;;;;7.10;99.90;;;;;;5137816;27;20424;-37
2023/04/11 00:32:36;;;;;;;;;;;7.00;99.90;;;;;;5137592;27;19912;-39
2023/04/11 00:35:02;;;;;;;;;;;7.00;99.90;;;;;;5136917;27;19907;-39
2023/04/11 00:37:27;;;;;;;;;;;7.00;99.90;;;;;;5151276;27;19927;-39
2023/04/11 00:39:54;;;;;;;;;;;6.90;99.90;;;;;;5158254;27;19963;-40
2023/04/11 00:42:20;;;;;;;;;;;6.90;99.90;;;;;;5157363;27;19908;-39
2023/04/11 00:44:45;;;;;;;;;;;6.80;99.90;;;;;;5157937;27;19918;-38
2023/04/11 00:47:11;;;;;;;;;;;6.70;99.90;;;;;;5158214;27;19907;-38
2023/04/11 00:49:37;;;;;;;;;;;6.70;99.90;;;;;;5157450;27;19914;-39
2023/04/11 00:52:03;;;;;;;;;;;6.70;99.90;;;;;;5157517;27;19915;-39
2023/04/11 00:54:29;;;;;;;;;;;6.70;99.90;;;;;;5157219;27;19914;-39
2023/04/11 00:56:57;;;;;;;;;;;6.60;99.90;;;;;;5157726;27;19919;-40
2023/04/11 00:59:22;;;;;;;;;;;6.60;99.90;;;;;;5157848;27;19907;-39
2023/04/11 01:01:48;;;;;;;;;;;6.50;99.90;;;;;;5143308;27;20002;-38
2023/04/11 01:04:16;;;;;;;;;;;6.50;99.90;;;;;;5137014;27;19907;-39
2023/04/11 01:06:43;;;;;;;;;;;6.50;99.90;;;;;;5136910;27;20443;-40
2023/04/11 01:09:09;;;;;;;;;;;6.50;99.90;;;;;;5136187;27;19912;-39
2023/04/11 01:11:34;;;;;;;;;;;6.50;99.90;;;;;;5136811;27;19907;-39
2023/04/11 01:14:00;;;;;;;;;;;6.50;99.90;;;;;;5136847;27;19908;-40
2023/04/11 01:16:25;;;;;;;;;;;6.50;99.90;;;;;;5135959;27;19923;-39
2023/04/11 01:18:51;;;;;;;;;;;6.50;99.90;;;;;;5136706;27;19998;-40
2023/04/11 01:21:18;;;;;;;;;;;6.50;99.90;;;;;;5136586;27;19949;-39
2023/04/11 01:23:43;;;;;;;;;;;6.60;99.90;;;;;;5134925;27;19915;-39
2023/04/11 01:26:09;;;;;;;;;;;6.60;99.90;;;;;;5136769;27;19907;-41
2023/04/11 01:28:34;;;;;;;;;;;6.60;99.90;;;;;;5136487;27;19911;-39
2023/04/11 01:31:00;;;;;;;;;;;6.70;99.90;;;;;;5140736;27;19911;-38
2023/04/11 01:33:25;;;;;;;;;;;6.70;99.90;;;;;;5155390;27;19919;-40
2023/04/11 01:35:51;;;;;;;;;;;6.80;99.90;;;;;;5157008;27;19915;-41
2023/04/11 01:38:16;;;;;;;;;;;6.80;99.90;;;;;;5156238;27;19919;-40
2023/04/11 01:40:43;;;;;;;;;;;6.80;99.90;;;;;;5157048;27;19922;-39
2023/04/11 01:43:10;;;;;;;;;;;6.80;99.90;;;;;;5157142;27;19995;-39
2023/04/11 01:45:35;;;;;;;;;;;6.80;99.90;;;;;;5156079;27;20284;-40
2023/04/11 01:48:04;;;;;;;;;;;6.80;99.90;;;;;;5156932;27;19908;-39
2023/04/11 01:50:30;;;;;;;;;;;6.80;99.90;;;;;;5156540;27;19960;-42
2023/04/11 01:52:55;;;;;;;;;;;6.70;99.90;;;;;;5156284;27;19911;-41
2023/04/11 01:55:21;;;;;;;;;;;6.70;99.90;;;;;;5156841;27;20282;-39
2023/04/11 01:57:46;;;;;;;;;;;6.60;99.90;;;;;;5155829;27;19915;-40
2023/04/11 02:00:12;;;;;;;;;;;6.60;99.90;;;;;;5156848;27;20365;-40
2023/04/11 02:02:38;;;;;;;;;;;6.60;99.90;;;;;;5136868;27;19923;-40
2023/04/11 02:05:04;;;;;;;;;;;6.60;99.90;;;;;;5135040;27;20324;-40
2023/04/11 02:07:30;;;;;;;;;;;6.60;99.90;;;;;;5135848;27;19912;-40
2023/04/11 02:09:55;;;;;;;;;;;6.60;99.90;;;;;;5135562;27;20509;-39
2023/04/11 02:12:21;;;;;;;;;;;6.70;99.90;;;;;;5134933;27;20392;-42
2023/04/11 02:14:48;;;;;;;;;;;6.70;99.90;;;;;;5156140;27;20373;-39
2023/04/11 02:17:13;;;;;;;;;;;6.70;99.90;;;;;;5156303;27;19929;-38
2023/04/11 02:19:44;;;;;;;;;;;6.70;99.90;;;;;;5155715;27;19907;-38
2023/04/11 02:22:10;;;;;;;;;;;6.70;99.90;;;;;;5156424;27;19914;-41
2023/04/11 02:24:35;;;;;;;;;;;6.70;99.90;;;;;;5156175;27;19908;-39
2023/04/11 02:27:01;;;;;;;;;;;6.70;99.90;;;;;;5155382;27;20001;-39
2023/04/11 02:29:27;;;;;;;;;;;6.80;99.90;;;;;;5156142;27;19907;-40
2023/04/11 02:31:52;;;;;;;;;;;6.80;99.90;;;;;;5152375;27;19964;-41
2023/04/11 02:34:18;;;;;;;;;;;6.70;99.90;;;;;;5141713;27;19914;-39
2023/04/11 02:36:44;;;;;;;;;;;6.80;99.90;;;;;;5135000;27;19915;-40
2023/04/11 02:39:10;;;;;;;;;;;6.90;99.90;;;;;;5135404;27;19914;-39
2023/04/11 02:41:39;;;;;;;;;;;6.90;99.90;;;;;;5134560;27;19912;-39
2023/04/11 02:44:04;;;;;;;;;;;6.90;99.90;;;;;;5146553;27;19976;-38
2023/04/11 02:46:30;;;;;;;;;;;7.00;99.90;;;;;;5155729;27;20258;-38
2023/04/11 02:48:55;;;;;;;;;;;7.00;99.90;;;;;;5154885;27;19910;-37
2023/04/11 02:51:21;;;;;;;;;;;7.00;99.90;;;;;;5155698;27;19915;-38
2023/04/11 02:53:46;;;;;;;;;;;7.00;99.90;;;;;;5155598;27;19910;-38
2023/04/11 02:56:17;;;;;;;;;;;7.00;99.90;;;;;;5154739;27;20289;-40
2023/04/11 02:58:45;;;;;;;;;;;7.00;99.90;;;;;;5155308;27;19955;-37
2023/04/11 03:01:13;;;;;;;;;;;6.90;99.90;;;;;;5149061;27;19959;-38
2023/04/11 03:03:39;;;;;;;;;;;7.00;99.90;;;;;;5134210;27;19934;-39
2023/04/11 03:06:08;;;;;;;;;;;7.00;99.90;;;;;;5134689;27;19911;-38
2023/04/11 03:08:34;;;;;;;;;;;7.00;99.90;;;;;;5133762;27;19946;-38
2023/04/11 03:11:00;;;;;;;;;;;7.00;99.90;;;;;;5134380;27;20277;-38
2023/04/11 03:13:26;;;;;;;;;;;7.00;99.90;;;;;;5134563;27;19919;-39
2023/04/11 03:15:51;;;;;;;;;;;7.00;99.90;;;;;;5133492;27;20007;-40
2023/04/11 03:18:17;;;;;;;;;;;7.00;99.90;;;;;;5134331;27;19964;-39
2023/04/11 03:20:43;;;;;;;;;;;7.10;99.90;;;;;;5134365;27;19912;-38
2023/04/11 03:23:09;;;;;;;;;;;7.10;99.90;;;;;;5133581;27;19911;-39
2023/04/11 03:25:36;;;;;;;;;;;7.10;99.90;;;;;;5134256;27;19947;-39
2023/04/11 03:28:02;;;;;;;;;;;7.00;99.90;;;;;;5134261;27;19911;-38
2023/04/11 03:30:28;;;;;;;;;;;7.00;99.90;;;;;;5133654;27;19952;-39
2023/04/11 03:32:53;;;;;;;;;;;7.00;99.90;;;;;;5153564;27;20381;-37
2023/04/11 03:35:19;;;;;;;;;;;7.00;99.90;;;;;;5155107;27;19953;-38
2023/04/11 03:37:45;;;;;;;;;;;7.00;99.90;;;;;;5153799;27;19915;-38
2023/04/11 03:40:11;;;;;;;;;;;7.10;99.90;;;;;;5154662;27;20327;-38
2023/04/11 03:42:36;;;;;;;;;;;7.00;99.90;;;;;;5154666;27;19946;-39
2023/04/11 03:45:03;;;;;;;;;;;7.00;99.90;;;;;;5153809;27;19952;-39
2023/04/11 03:47:28;;;;;;;;;;;7.10;99.90;;;;;;5154259;27;20381;-40
2023/04/11 03:49:54;;;;;;;;;;;7.10;99.90;;;;;;5154444;27;19951;-38
2023/04/11 03:52:19;;;;;;;;;;;7.10;99.90;;;;;;5136551;27;19962;-38
2023/04/11 03:54:45;;;;;;;;;;;7.10;99.90;;;;;;5133788;27;20327;-39
2023/04/11 03:57:10;;;;;;;;;;;7.20;99.90;;;;;;5132924;27;20285;-40
2023/04/11 03:59:36;;;;;;;;;;;7.20;99.90;;;;;;5133688;27;19938;-38
2023/04/11 04:02:01;;;;;;;;;;;7.20;99.90;;;;;;5133558;27;19923;-38
2023/04/11 04:04:27;;;;;;;;;;;7.30;99.90;;;;;;5132959;27;20313;-39
2023/04/11 04:06:55;;;;;;;;;;;7.30;99.90;;;;;;5137162;27;19926;-39
2023/04/11 04:09:24;;;;;;;;;;;7.40;99.90;;;;;;5154499;27;19960;-38
2023/04/11 04:11:49;;;;;;;;;;;7.40;99.90;;;;;;5153498;27;20277;-39
2023/04/11 04:14:15;;;;;;;;;;;7.40;99.90;;;;;;5154302;27;19914;-40
2023/04/11 04:16:40;;;;;;;;;;;7.40;99.90;;;;;;5154120;27;19918;-39
2023/04/11 04:19:06;;;;;;;;;;;7.50;99.90;;;;;;5153467;27;20001;-39
2023/04/11 04:21:32;;;;;;;;;;;7.50;99.90;;;;;;5151359;27;19911;-39
2023/04/11 04:24:02;;;;;;;;;;;7.50;99.90;;;;;;5154262;27;19907;-39
2023/04/11 04:26:28;;;;;;;;;;;7.50;99.90;;;;;;5153482;27;20285;-39
2023/04/11 04:28:56;;;;;;;;;;;7.50;99.90;;;;;;5154001;27;19907;-40
2023/04/11 04:31:24;;;;;;;;;;;7.50;99.90;;;;;;5154224;27;19994;-39
2023/04/11 04:33:50;;;;;;;;;;;7.50;99.90;;;;;;5153194;27;19994;-40
2023/04/11 04:36:16;;;;;;;;;;;7.60;99.90;;;;;;5153998;27;19945;-39
2023/04/11 04:38:46;;;;;;;;;;;7.60;99.90;;;;;;5153992;27;19911;-40
2023/04/11 04:41:14;;;;;;;;;;;7.60;99.90;;;;;;5149540;27;19958;-39
2023/04/11 04:43:43;;;;;;;;;;;7.60;99.90;;;;;;5133247;28;20001;-39
2023/04/11 04:46:09;;;;;;;;;;;7.60;99.90;;;;;;5133468;28;19969;-38
2023/04/11 04:48:35;;;;;;;;;;;7.60;99.90;;;;;;5132549;28;20003;-39
2023/04/11 04:51:01;;;;;;;;;;;7.70;99.90;;;;;;5133269;28;19999;-38
2023/04/11 04:53:27;;;;;;;;;;;7.70;99.90;;;;;;5132488;28;19936;-39
2023/04/11 04:55:52;;;;;;;;;;;7.70;99.90;;;;;;5133072;28;19912;-39
2023/04/11 04:58:18;;;;;;;;;;;7.70;99.90;;;;;;5134322;27;19915;-39
2023/04/11 05:00:43;;;;;;;;;;;7.60;99.90;;;;;;5136213;27;20386;-40
2023/04/11 05:03:09;;;;;;;;;;;7.60;99.90;;;;;;5136835;27;20014;-39
2023/04/11 05:05:35;;;;;;;;;;;7.60;99.90;;;;;;5136984;27;19914;-41
2023/04/11 05:08:00;;;;;;;;;;;7.70;99.90;;;;;;5136305;27;19998;-39
2023/04/11 05:10:25;;;;;;;;;;;7.70;99.90;;;;;;5118494;27;19911;-39
2023/04/11 05:12:52;;;;;;;;;;;7.60;99.90;;;;;;5153956;27;19911;-43
2023/04/11 05:15:17;;;;;;;;;;;7.70;99.90;;;;;;5156907;27;19907;-39
2023/04/11 05:17:43;;;;;;;;;;;7.70;99.90;;;;;;5157345;27;19922;-39
2023/04/11 05:20:09;;;;;;;;;;;7.70;99.90;;;;;;5157616;27;20358;-39
2023/04/11 05:22:35;;;;;;;;;;;7.70;99.90;;;;;;5156642;27;19913;-39
2023/04/11 05:25:01;;;;;;;;;;;7.70;99.90;;;;;;5157256;27;20376;-39
2023/04/11 05:27:26;;;;;;;;;;;7.70;99.90;;;;;;5153237;27;19911;-41
2023/04/11 05:29:53;;;;;;;;;;;7.70;99.90;;;;;;5143835;27;19917;-40
2023/04/11 05:32:18;;;;;;;;;;;7.70;99.90;;;;;;5140792;27;19977;-39
2023/04/11 05:34:51;;;;;;;;;;;7.70;99.90;;;;;;5144932;27;19949;-40
2023/04/11 05:37:16;;;;;;;;;;;7.70;99.90;;;;;;5156268;27;19923;-39
2023/04/11 05:39:42;;;;;;;;;;;7.70;99.90;;;;;;5143264;27;20008;-42
2023/04/11 05:42:07;;;;;;;;;;;7.70;99.90;;;;;;5145040;27;19965;-40
2023/04/11 05:44:33;;;;;;;;;;;7.80;99.90;;;;;;5150450;27;20377;-40
2023/04/11 05:46:58;;;;;;;;;;;7.70;99.90;;;;;;5147056;27;19980;-40
2023/04/11 05:49:24;;;;;;;;;;;7.70;99.90;;;;;;5147303;27;19911;-39
2023/04/11 05:51:49;;;;;;;;;;;7.70;99.90;;;;;;5137252;27;19956;-40
2023/04/11 05:54:29;;;;;;;;;;;7.70;99.90;;;;;;5156270;27;19911;-39
2023/04/11 05:56:55;;;;;;;;;;;7.70;99.90;;;;;;5155845;27;19954;-39
2023/04/11 05:59:22;;;;;;;;;;;7.70;99.90;;;;;;5154307;27;19973;-41
2023/04/11 06:01:49;;;;;;;;;;;7.70;99.90;;;;;;5135231;27;19908;-40
2023/04/11 06:04:15;;;;;;;;;;;7.70;99.90;;;;;;5135132;27;20012;-39
2023/04/11 06:06:42;;;;;;;;;;;7.80;99.90;;;;;;5135632;27;19929;-39
2023/04/11 06:09:09;;;;;;;;;;;7.80;99.90;;;;;;5135352;27;19907;-39
2023/04/11 06:11:35;;;;;;;;;;;7.80;99.90;;;;;;5134395;27;19918;-39
2023/04/11 06:14:00;;;;;;;;;;;7.80;99.90;;;;;;5153210;27;19909;-39
2023/04/11 06:16:26;;;;;;;;;;;7.80;99.90;;;;;;5145095;27;20293;-41
2023/04/11 06:18:51;;;;;;;;;;;7.80;99.90;;;;;;5134613;27;19912;-41
2023/04/11 06:21:17;;;;;;;;;;;7.90;99.90;;;;;;5135640;27;19914;-40
2023/04/11 06:23:42;;;;;;;;;;;7.90;99.90;;;;;;5148759;27;19954;-40
2023/04/11 06:26:08;;;;;;;;;;;7.90;99.90;;;;;;5146550;27;19915;-40
2023/04/11 06:28:33;;;;;;;;;;;7.90;99.90;;;;;;5145227;27;19914;-40
2023/04/11 06:30:59;;;;;;;;;;;7.90;99.90;;;;;;5155895;27;19911;-40
2023/04/11 06:33:24;;;;;;;;;;;7.90;99.90;;;;;;5155165;27;19950;-42
2023/04/11 06:35:50;;;;;;;;;;;7.90;99.90;;;;;;5152366;27;19922;-39
2023/04/11 06:38:15;;;;;;;;;;;8.00;99.90;;;;;;5140955;27;19971;-39
2023/04/11 06:40:41;;;;;;;;;;;8.00;99.90;;;;;;5138007;27;19915;-40
2023/04/11 06:43:06;;;;;;;;;;;8.00;99.90;;;;;;5142250;27;19911;-39
2023/04/11 06:45:31;;;;;;;;;;;8.10;99.90;;;;;;5151651;27;19918;-39
2023/04/11 06:47:57;;;;;;;;;;;8.10;99.90;;;;;;5136206;27;20056;-40
2023/04/11 06:50:22;;;;;;;;;;;8.10;99.90;;;;;;5140016;27;19911;-40
2023/04/11 06:52:48;;;;;;;;;;;8.20;99.90;;;;;;5146571;27;19918;-39
2023/04/11 06:55:14;;;;;;;;;;;8.20;99.90;;;;;;5154680;27;20281;-38
2023/04/11 06:57:40;;;;;;;;;;;8.20;99.90;;;;;;5155312;27;19915;-39
2023/04/11 07:00:06;;;;;;;;;;;8.20;99.90;;;;;;5154042;27;20269;-40
2023/04/11 07:02:34;;;;;;;;;;;8.30;99.90;;;;;;5155230;27;19926;-40
2023/04/11 07:05:00;;;;;;;;;;;8.30;99.90;;;;;;5142149;27;19914;-41
2023/04/11 07:07:26;;;;;;;;;;;8.30;99.90;;;;;;5133776;27;19907;-40
2023/04/11 07:09:51;;;;;;;;;;;8.30;99.90;;;;;;5134696;27;19907;-41
2023/04/11 07:12:17;;;;;;;;;;;8.40;99.90;;;;;;5134113;27;19960;-39
2023/04/11 07:14:43;;;;;;;;;;;8.40;99.90;;;;;;5144813;27;20362;-40
2023/04/11 07:17:08;;;;;;;;;;;8.40;99.90;;;;;;5152780;27;20361;-40
2023/04/11 07:19:34;;;;;;;;;;;8.50;99.90;;;;;;5146877;27;20018;-40
2023/04/11 07:21:59;;;;;;;;;;;8.50;99.90;;;;;;5142020;27;20003;-39
2023/04/11 07:24:25;;;;;;;;;;;8.40;99.90;;;;;;5142593;27;19997;-39
2023/04/11 07:26:52;;;;;;;;;;;8.50;99.90;;;;;;5137413;27;19912;-40
2023/04/11 07:29:18;;;;;;;;;;;8.50;99.90;;;;;;5143455;27;19911;-39
2023/04/11 07:31:43;;;;;;;;;;;8.50;99.90;;;;;;5144133;27;19963;-38
2023/04/11 07:34:09;;;;;;;;;;;8.50;99.90;;;;;;5146958;27;20351;-39
2023/04/11 07:36:35;;;;;;;;;;;8.60;99.90;;;;;;5139499;27;19919;-39
2023/04/11 07:39:00;;;;;;;;;;;8.60;99.90;;;;;;5136094;27;19919;-40
2023/04/11 07:41:26;;;;;;;;;;;8.50;99.90;;;;;;5135899;27;19933;-41
2023/04/11 07:43:51;;;;;;;;;;;8.50;99.90;;;;;;5149021;27;19913;-42
2023/04/11 07:46:17;;;;;;;;;;;8.50;99.90;;;;;;5142023;27;19912;-40
2023/04/11 07:48:42;;;;;;;;;;;8.50;99.90;;;;;;5138912;27;20346;-41
2023/04/11 07:51:08;;;;;;;;;;;8.50;99.90;;;;;;5150899;27;19911;-40
2023/04/11 07:53:33;;;;;;;;;;;8.60;99.90;;;;;;5155147;27;19987;-41
2023/04/11 07:55:59;;;;;;;;;;;8.60;99.90;;;;;;5155044;27;19952;-39
2023/04/11 07:58:24;;;;;;;;;;;8.70;99.90;;;;;;5154778;27;19915;-41
2023/04/11 08:00:51;;;;;;;;;;;8.70;99.90;;;;;;5154975;27;20416;-40
2023/04/11 08:03:17;;;;;;;;;;;8.70;99.90;;;;;;5154760;27;20022;-42
2023/04/11 08:05:43;;;;;;;;;;;8.70;99.90;;;;;;5154827;27;19951;-41
2023/04/11 08:08:08;;;;;;;;;;;8.70;99.90;;;;;;5155094;27;19959;-39
2023/04/11 08:10:34;;;;;;;;;;;8.80;99.90;;;;;;5153734;27;20373;-40
2023/04/11 08:13:00;;;;;;;;;;;8.80;99.90;;;;;;5140482;27;19912;-40
2023/04/11 08:15:25;;;;;;;;;;;9.10;99.90;;;;;;5131050;28;19911;-40
2023/04/11 08:17:55;;;;;;;;;;;9.20;99.90;;;;;;5132171;28;19926;-42
2023/04/11 08:20:20;;;;;;;;;;;9.40;99.90;;;;;;5133927;27;19911;-40
2023/04/11 08:22:46;;;;;;;;;;;9.50;99.90;;;;;;5154129;27;19978;-40
2023/04/11 08:25:12;;;;;;;;;;;9.60;99.90;;;;;;5153464;27;19908;-41
2023/04/11 08:27:38;;;;;;;;;;;9.70;99.90;;;;;;5154108;27;19965;-40
2023/04/11 08:30:07;;;;;;;;;;;9.70;99.90;;;;;;5154241;27;20332;-41
2023/04/11 08:32:36;;;;;;;;;;;9.80;99.90;;;;;;5154567;27;19998;-41
2023/04/11 08:35:01;;;;;;;;;;;9.90;99.90;;;;;;5158301;27;19916;-41
2023/04/11 08:37:27;;;;;;;;;;;9.90;99.90;;;;;;5158176;27;19918;-40
2023/04/11 08:39:52;;;;;;;;;;;10.10;99.90;;;;;;5148312;27;19915;-40
2023/04/11 08:42:25;;;;;;;;;;;10.30;99.90;;;;;;5137564;27;19907;-42
2023/04/11 08:44:52;;;;;;;;;;;10.40;99.90;;;;;;5137371;27;19908;-41
2023/04/11 08:47:17;;;;;;;;;;;10.40;99.90;;;;;;5136452;27;19916;-41
2023/04/11 08:49:43;;;;;;;;;;;10.40;99.90;;;;;;5137317;27;20381;-40
2023/04/11 08:52:08;;;;;;;;;;;10.40;99.90;;;;;;5141357;27;19911;-40
2023/04/11 08:54:34;;;;;;;;;;;10.50;99.90;;;;;;5143168;27;19920;-41
2023/04/11 08:56:59;;;;;;;;;;;10.50;99.90;;;;;;5148001;27;20285;-43
2023/04/11 08:59:26;;;;;;;;;;;10.60;99.90;;;;;;5139891;27;19907;-39
2023/04/11 09:02:04;;;;;;;;;;;10.70;99.90;;;;;;5139994;27;19911;-41
2023/04/11 09:04:37;;;;;;;;;;;10.60;99.90;;;;;;5147550;27;20018;-41
2023/04/11 09:07:04;;;;;;;;;;;10.50;99.90;;;;;;5149696;27;19918;-42
2023/04/11 09:09:30;;;;;;;;;;;10.40;99.90;;;;;;5157542;27;19943;-41
2023/04/11 09:11:55;;;;;;;;;;;10.50;99.90;;;;;;5156032;27;19983;-40
2023/04/11 09:14:23;;;;;;;;;;;10.50;99.90;;;;;;5149252;27;20205;-42
2023/04/11 09:17:12;;;;;;;;;;;10.50;99.90;;;;;;5153595;27;19944;-40
2023/04/11 09:19:39;;;;;;;;;;;10.40;99.90;;;;;;5157361;27;20022;-40
2023/04/11 09:22:04;;;;;;;;;;;10.70;99.90;;;;;;5156138;27;19911;-43
2023/04/11 09:24:30;;;;;;;;;;;10.90;99.90;;;;;;5157176;27;20375;-41
2023/04/11 09:27:12;;;;;;;;;;;10.90;99.90;;;;;;5157298;27;20407;-40
2023/04/11 09:29:41;;;;;;;;;;;10.80;99.90;;;;;;5156615;27;20432;-39
2023/04/11 09:32:24;;;;;;;;;;;10.50;99.90;;;;;;5156706;27;19911;-41
2023/04/11 09:34:49;;;;;;;;;;;10.30;99.90;;;;;;5156088;27;19907;-40
2023/04/11 09:37:15;;;;;;;;;;;10.10;99.90;;;;;;5156592;27;19919;-44
2023/04/11 09:39:41;;;;;;;;;;;9.70;99.90;;;;;;5155867;27;19922;-41
2023/04/11 09:42:23;;;;;;;;;;;9.50;99.90;;;;;;5155834;27;20002;-42
2023/04/11 09:44:48;;;;;;;;;;;9.60;99.90;;;;;;5155097;27;20259;-41
2023/04/11 09:47:13;;;;;;;;;;;10.00;99.90;;;;;;5156984;27;19955;-41
2023/04/11 09:49:39;;;;;;;;;;;10.40;99.90;;;;;;5156313;27;19962;-40
2023/04/11 09:52:05;;;;;;;;;;;10.80;99.90;;;;;;5155192;27;19918;-41
2023/04/11 09:54:30;;;;;;;;;;;10.90;99.90;;;;;;5135939;27;20433;-40
2023/04/11 09:56:57;;;;;;;;;;;10.80;99.90;;;;;;5151242;27;20499;-40
2023/04/11 09:59:24;;;;;;;;;;;10.60;99.90;;;;;;5156795;27;19969;-41
2023/04/11 10:01:50;;;;;;;;;;;10.00;99.90;;;;;;5155660;27;19911;-39
2023/04/11 10:04:16;;;;;;;;;;;8.80;99.90;;;;;;5144284;27;19911;-38
2023/04/11 10:06:53;;;;;;;;;;;8.10;99.90;;;;;;5149136;27;20278;-38
2023/04/11 10:09:18;;;;;;;;;;;7.80;99.90;;;;;;5156259;27;19907;-38
2023/04/11 10:11:44;;;;;;;;;;;7.60;99.90;;;;;;5155349;27;20007;-37
2023/04/11 10:14:28;;;;;;;;;;;7.60;99.90;;;;;;5155331;27;19918;-39
2023/04/11 10:17:09;;;;;;;;;;;7.60;99.90;;;;;;5139067;27;20031;-39
2023/04/11 10:19:34;;;;;;;;;;;7.70;99.90;;;;;;5135368;27;19912;-39
2023/04/11 10:22:00;;;;;;;;;;;7.80;99.90;;;;;;5135738;27;19912;-38
2023/04/11 10:24:25;;;;;;;;;;;7.90;99.90;;;;;;5134453;27;20297;-40
2023/04/11 10:26:51;;;;;;;;;;;7.90;99.90;;;;;;5135299;27;19915;-39
2023/04/11 10:32:18;;;;;;;;;;;7.90;99.90;;;;;;5147849;27;19934;-39
2023/04/11 10:34:49;;;;;;;;;;;7.80;99.90;;;;;;5124177;27;19907;-37
2023/04/11 10:37:15;;;;;;;;;;;7.90;99.90;;;;;;5155901;27;19919;-39
2023/04/11 10:39:47;;;;;;;;;;;8.00;99.90;;;;;;5141349;27;19918;-38
2023/04/11 10:42:31;;;;;;;;;;;8.00;99.90;;;;;;5137805;27;20358;-38
2023/04/11 10:45:16;;;;;;;;;;;8.00;99.90;;;;;;5152187;27;19911;-39
2023/04/11 10:47:42;;;;;;;;;;;8.00;99.90;;;;;;5156440;27;19930;-38
2023/04/11 10:50:26;;;;;;;;;;;7.90;99.90;;;;;;5155566;27;20245;-37
2023/04/11 10:52:52;;;;;;;;;;;8.00;99.90;;;;;;5134426;27;20350;-39
2023/04/11 10:55:18;;;;;;;;;;;8.40;99.90;;;;;;5139966;27;19937;-38
2023/04/11 10:58:02;;;;;;;;;;;8.70;99.90;;;;;;5155087;27;20358;-38
2023/04/11 11:00:28;;;;;;;;;;;9.10;99.90;;;;;;5136761;27;19918;-38
2023/04/11 11:02:53;;;;;;;;;;;9.60;99.90;;;;;;5140240;27;20006;-38
2023/04/11 11:05:20;;;;;;;;;;;9.90;99.90;;;;;;5145137;27;19934;-38
2023/04/11 11:07:46;;;;;;;;;;;10.10;99.90;;;;;;5140377;27;19915;-38
2023/04/11 11:10:12;;;;;;;;;;;10.20;99.90;;;;;;5140264;27;19998;-39
2023/04/11 11:12:50;;;;;;;;;;;10.30;99.90;;;;;;5147903;27;19965;-38
2023/04/11 11:15:15;;;;;;;;;;;10.60;99.90;;;;;;5142639;27;19921;-40
2023/04/11 11:17:41;;;;;;;;;;;10.70;99.90;;;;;;5143850;27;20006;-39
2023/04/11 11:20:14;;;;;;;;;;;10.30;99.90;;;;;;5149919;27;20483;-40
2023/04/11 11:22:39;;;;;;;;;;;10.00;99.90;;;;;;5154936;27;19997;-38
2023/04/11 11:25:08;;;;;;;;;;;9.60;99.90;;;;;;5151995;27;20006;-38
2023/04/11 11:27:33;;;;;;;;;;;9.50;99.90;;;;;;5148310;27;19966;-37
2023/04/11 11:30:09;;;;;;;;;;;9.50;99.90;;;;;;5145249;27;20396;-38
2023/04/11 11:32:34;;;;;;;;;;;9.50;99.90;;;;;;5148949;27;19983;-38
2023/04/11 11:35:11;;;;;;;;;;;9.70;99.90;;;;;;5152319;27;20354;-39
2023/04/11 11:37:36;;;;;;;;;;;9.70;99.90;;;;;;5153134;27;19915;-38
2023/04/11 11:40:08;;;;;;;;;;;9.70;99.90;;;;;;5153182;27;19911;-38
2023/04/11 11:42:35;;;;;;;;;;;9.70;99.90;;;;;;5152667;27;19921;-39
2023/04/11 11:45:19;;;;;;;;;;;9.50;99.90;;;;;;5153182;27;19964;-39
2023/04/11 11:47:45;;;;;;;;;;;9.00;99.90;;;;;;5147860;27;19915;-37
2023/04/11 11:50:22;;;;;;;;;;;8.80;99.90;;;;;;5139940;27;20359;-40
2023/04/11 11:52:48;;;;;;;;;;;8.70;99.90;;;;;;5134136;27;19907;-38
2023/04/11 11:55:16;;;;;;;;;;;8.80;99.90;;;;;;5138462;27;19915;-38
2023/04/11 11:57:45;;;;;;;;;;;8.90;99.90;;;;;;5138804;27;19995;-38
2023/04/11 12:00:11;;;;;;;;;;;8.90;99.90;;;;;;5145644;27;20047;-38
2023/04/11 12:02:37;;;;;;;;;;;9.00;99.90;;;;;;5148607;27;20356;-36
2023/04/11 12:05:05;;;;;;;;;;;9.00;99.90;;;;;;5149881;27;20422;-40
2023/04/11 12:07:32;;;;;;;;;;;8.90;99.90;;;;;;5143023;27;19911;-37
2023/04/11 12:10:01;;;;;;;;;;;8.90;99.90;;;;;;5141797;27;20461;-38
2023/04/11 12:12:34;;;;;;;;;;;8.90;99.90;;;;;;5140908;27;19911;-38
2023/04/11 12:15:00;;;;;;;;;;;8.90;99.90;;;;;;5149678;27;19918;-38
2023/04/11 12:17:35;;;;;;;;;;;8.90;99.90;;;;;;5115044;28;19916;-38
2023/04/11 12:20:01;;;;;;;;;;;9.10;99.90;;;;;;5154941;27;19907;-38
2023/04/11 12:22:26;;;;;;;;;;;9.30;99.90;;;;;;5154513;27;20231;-38
2023/04/11 12:24:52;;;;;;;;;;;9.20;99.90;;;;;;5154472;27;20281;-39
2023/04/11 12:27:17;;;;;;;;;;;9.20;99.90;;;;;;5154903;27;20026;-39
2023/04/11 12:29:45;;;;;;;;;;;9.50;99.90;;;;;;5150509;27;19935;-40
2023/04/11 12:32:10;;;;;;;;;;;9.90;99.90;;;;;;5133546;27;19912;-40
2023/04/11 12:34:35;;;;;;;;;;;10.20;99.90;;;;;;5145476;27;20015;-37
2023/04/11 12:37:01;;;;;;;;;;;10.50;99.90;;;;;;5154586;27;19960;-39
2023/04/11 12:39:26;;;;;;;;;;;10.70;99.90;;;;;;5147059;27;19964;-39
2023/04/11 12:41:52;;;;;;;;;;;10.70;99.90;;;;;;5146837;27;20299;-41
2023/04/11 12:44:17;;;;;;;;;;;10.60;99.90;;;;;;5141671;27;19911;-39
2023/04/11 12:46:43;;;;;;;;;;;10.50;99.90;;;;;;5141609;27;19971;-39
2023/04/11 12:49:08;;;;;;;;;;;10.30;99.90;;;;;;5138601;27;19910;-39
2023/04/11 12:51:34;;;;;;;;;;;10.20;99.90;;;;;;5145148;27;19907;-42
2023/04/11 12:53:59;;;;;;;;;;;10.30;99.90;;;;;;5143461;27;20251;-39
2023/04/11 12:56:25;;;;;;;;;;;10.40;99.90;;;;;;5154150;27;19960;-39
2023/04/11 12:58:51;;;;;;;;;;;10.60;99.90;;;;;;5153925;27;19940;-39
2023/04/11 13:01:17;;;;;;;;;;;10.90;99.90;;;;;;5154447;27;20349;-41
2023/04/11 13:03:42;;;;;;;;;;;11.20;99.90;;;;;;5154221;27;19926;-38
2023/04/11 13:06:08;;;;;;;;;;;11.30;99.90;;;;;;5154042;27;19907;-39
2023/04/11 13:08:33;;;;;;;;;;;11.30;99.90;;;;;;5154496;27;20431;-41
2023/04/11 13:10:58;;;;;;;;;;;11.50;99.90;;;;;;5154242;27;19914;-41
2023/04/11 13:13:24;;;;;;;;;;;11.70;99.90;;;;;;5153979;27;19960;-40
2023/04/11 13:15:50;;;;;;;;;;;11.90;99.90;;;;;;5154315;27;19914;-43
2023/04/11 13:18:15;;;;;;;;;;;12.20;99.90;;;;;;5154483;27;19919;-39
2023/04/11 13:20:41;;;;;;;;;;;12.30;99.90;;;;;;5144421;27;20425;-40
2023/04/11 13:23:06;;;;;;;;;;;12.00;97.80;;;;;;5137591;27;19912;-40
2023/04/11 13:25:32;;;;;;;;;;;12.10;98.80;;;;;;5137243;27;19908;-40
2023/04/11 13:27:57;;;;;;;;;;;11.90;99.30;;;;;;5136789;27;19916;-41
2023/04/11 13:30:23;;;;;;;;;;;11.80;96.90;;;;;;5137166;27;19950;-40
2023/04/11 13:32:49;;;;;;;;;;;11.70;99.90;;;;;;5137185;27;19914;-40
2023/04/11 13:35:14;;;;;;;;;;;11.80;99.90;;;;;;5136791;27;19907;-41
2023/04/11 13:37:40;;;;;;;;;;;11.60;99.90;;;;;;5137152;27;19916;-41
2023/04/11 13:40:07;;;;;;;;;;;11.70;97.80;;;;;;5137250;27;20499;-39
2023/04/11 13:42:33;;;;;;;;;;;11.90;83.50;;;;;;5136382;27;20346;-40
2023/04/11 13:44:58;;;;;;;;;;;11.90;78.20;;;;;;5136535;27;19915;-40
2023/04/11 13:47:23;;;;;;;;;;;12.00;80.50;;;;;;5136966;27;19914;-40
2023/04/11 13:49:49;;;;;;;;;;;12.30;81.50;;;;;;5141326;27;19911;-39
2023/04/11 13:52:15;;;;;;;;;;;12.40;78.80;;;;;;5147396;27;19925;-40
2023/04/11 13:54:41;;;;;;;;;;;12.00;72.40;;;;;;5144634;27;19907;-41
2023/04/11 13:57:08;;;;;;;;;;;12.10;81.10;;;;;;5156543;27;19921;-40
2023/04/11 13:59:34;;;;;;;;;;;12.50;75.90;;;;;;5147236;27;20013;-41
2023/04/11 14:02:00;;;;;;;;;;;12.60;70.70;;;;;;5152564;27;20389;-42
2023/04/11 14:04:26;;;;;;;;;;;12.50;64.60;;;;;;5136264;27;19918;-39
2023/04/11 14:06:52;;;;;;;;;;;12.70;63.90;;;;;;5136290;27;19907;-42
2023/04/11 14:09:18;;;;;;;;;;;13.10;64.10;;;;;;5135800;27;20243;-42
2023/04/11 14:11:43;;;;;;;;;;;13.20;63.30;;;;;;5135979;27;20014;-42
2023/04/11 14:14:09;;;;;;;;;;;13.40;63.50;;;;;;5136129;27;19976;-42
2023/04/11 14:16:34;;;;;;;;;;;13.50;79.20;;;;;;5135857;27;19912;-41
2023/04/11 14:19:00;;;;;;;;;;;13.70;65.00;;;;;;5136101;27;19987;-40
2023/04/11 14:21:26;;;;;;;;;;;13.60;63.30;;;;;;5136301;27;19908;-40
2023/04/11 14:23:51;;;;;;;;;;;13.90;65.20;;;;;;5135472;27;20287;-42
2023/04/11 14:26:17;;;;;;;;;;;13.80;57.50;;;;;;5136520;27;19908;-42